< < Back
Terminal Aerodrome Forecast


Current Version              Previous Versions:   1  2  3  4  5  6  7  8  9  

Terminal Aerodrome Forecast

620
FTUS42 KMLB 252000 AAB
TAFDAB
TAF AMD
KDAB 252005Z 2520/2618 05007KT 3SM TSRA BR SCT003 BKN020CB OVC035
      TEMPO 2520/2523 1SM TSRA BR BKN003 BKN012CB OVC020
     FM260200 19010KT P6SM VCSH BKN010
     FM260900 32016G24KT P6SM VCSH BKN025=



Latest METAR

378
SAUS80 KWBC 250900 RRG
MTRDAB
METAR KDAB 260853Z 19008KT 10SM -RA FEW009 BKN012 OVC020 22/21 A2985 RMK
AO2 SLP106 P0005 60006 T02220211 50000


USA.gov is the U.S. government's official web portal to all federal, state and local government web resources and services.